Huvudsida
METAR-TAF:

METAR-TAF

Flygplatser :

Salt Lake City International Airport

Salt Lake City, Utah, USA

latitud: 40-46-41N, longitud: 111-58-10W, höjd: 1288 m

Aktuellt väderrapport

Denna rapport gjordes för 52 minuter sedan, klockan 08:54 UTC
Vind 3 kt från nordväst
Temperatur 10°C
Fuktighet 43%
Tryck 1022 hPa
Sikt: 16.1 km
Klar himmel

METAR: KSLC 250854Z 32003KT 10SM CLR 10/M02 A3017 RMK AO2 SLP182 T01001022 53013

Tid: 03:46 (09:46 UTC)

Väderprognos

Denna rapport gjordes för 45 minuter sedan, klockan 09:01 UTC
Prognos gäller från 25 kl. 09 UTC till 26 kl. 12 UTC
Vind 4 kt från nordväst
Sikt: 10 km
Klar himmel
Från 25 kl. 1100 UTC
Vind 5 kt från syd/sydost
Sikt: 10 km
Klar himmel
Från 25 kl. 1600 UTC
Vind 9 kt från nord/nordväst
Sikt: 10 km
Klar himmel
Från 26 kl. 0500 UTC
Vind 6 kt från sydost
Sikt: 10 km
Klar himmel

TAF: KSLC 250901Z 2509/2612 32004KT P6SM SKC FM251100 15005KT P6SM SKC FM251600 34009KT P6SM SKC FM260500 14006KT P6SM SKC

Aktuella väderrapporter och prognoser från 4000 flygplatser (METAR- och TAF-rapporter).

De tillgängliga stationerna syns som gula och röda prickar på kartan.

För musen över prickarna för att se namnen på stationerna.

Klicka sedan för att få väderrapporter och prognoser.

För att ändra kartan: Klicka på de gröna knapparna med ett svart kors på för att zooma in; den gröna knappen med ett streck på för att zooma ut; eller på de gröna pilarna för angränsande kartor.


METAR-TAF: